sensor_id;sensor_type;location;lat;lon;timestamp;P1;durP1;ratioP1;P2;durP2;ratioP2
23155;SDS011;11746;50.876;4.246;2023-04-25T00:00:46;14.77;;;3.92;;
23155;SDS011;11746;50.876;4.246;2023-04-25T00:03:11;15.43;;;4.28;;
23155;SDS011;11746;50.876;4.246;2023-04-25T00:05:39;20.23;;;5.82;;
23155;SDS011;11746;50.876;4.246;2023-04-25T00:08:05;23.77;;;6.20;;
23155;SDS011;11746;50.876;4.246;2023-04-25T00:10:31;15.20;;;4.38;;
23155;SDS011;11746;50.876;4.246;2023-04-25T00:12:59;16.30;;;4.32;;
23155;SDS011;11746;50.876;4.246;2023-04-25T00:15:27;13.32;;;3.97;;
23155;SDS011;11746;50.876;4.246;2023-04-25T00:17:56;16.20;;;3.92;;
23155;SDS011;11746;50.876;4.246;2023-04-25T00:20:24;12.32;;;3.40;;
23155;SDS011;11746;50.876;4.246;2023-04-25T00:22:50;18.27;;;3.88;;
23155;SDS011;11746;50.876;4.246;2023-04-25T00:25:17;13.48;;;3.72;;
23155;SDS011;11746;50.876;4.246;2023-04-25T00:27:45;18.83;;;3.67;;
23155;SDS011;11746;50.876;4.246;2023-04-25T00:30:11;11.85;;;3.63;;
23155;SDS011;11746;50.876;4.246;2023-04-25T00:32:40;13.55;;;4.00;;
23155;SDS011;11746;50.876;4.246;2023-04-25T00:35:10;15.07;;;3.88;;
23155;SDS011;11746;50.876;4.246;2023-04-25T00:37:38;12.48;;;3.97;;
23155;SDS011;11746;50.876;4.246;2023-04-25T00:40:05;15.55;;;4.13;;
23155;SDS011;11746;50.876;4.246;2023-04-25T00:42:31;17.17;;;4.57;;
23155;SDS011;11746;50.876;4.246;2023-04-25T00:44:57;14.25;;;3.63;;
23155;SDS011;11746;50.876;4.246;2023-04-25T00:47:27;14.63;;;4.43;;
23155;SDS011;11746;50.876;4.246;2023-04-25T00:49:56;14.23;;;3.75;;
23155;SDS011;11746;50.876;4.246;2023-04-25T00:52:26;14.35;;;4.30;;
23155;SDS011;11746;50.876;4.246;2023-04-25T00:54:52;12.27;;;3.83;;
23155;SDS011;11746;50.876;4.246;2023-04-25T00:57:17;16.42;;;4.30;;
23155;SDS011;11746;50.876;4.246;2023-04-25T00:59:45;15.23;;;4.32;;
23155;SDS011;11746;50.876;4.246;2023-04-25T01:02:11;14.27;;;4.03;;
23155;SDS011;11746;50.876;4.246;2023-04-25T01:04:38;14.77;;;4.57;;
23155;SDS011;11746;50.876;4.246;2023-04-25T01:07:06;12.90;;;4.30;;
23155;SDS011;11746;50.876;4.246;2023-04-25T01:09:32;13.23;;;4.15;;
23155;SDS011;11746;50.876;4.246;2023-04-25T01:12:02;18.33;;;4.60;;
23155;SDS011;11746;50.876;4.246;2023-04-25T01:14:28;16.83;;;3.95;;
23155;SDS011;11746;50.876;4.246;2023-04-25T01:16:54;16.77;;;4.00;;
23155;SDS011;11746;50.876;4.246;2023-04-25T01:19:20;14.63;;;5.35;;
23155;SDS011;11746;50.876;4.246;2023-04-25T01:21:46;16.73;;;4.90;;
23155;SDS011;11746;50.876;4.246;2023-04-25T01:24:14;18.33;;;4.22;;
23155;SDS011;11746;50.876;4.246;2023-04-25T01:26:42;12.38;;;3.95;;
23155;SDS011;11746;50.876;4.246;2023-04-25T01:29:14;12.57;;;3.83;;
23155;SDS011;11746;50.876;4.246;2023-04-25T01:31:44;16.33;;;4.60;;
23155;SDS011;11746;50.876;4.246;2023-04-25T01:34:13;13.50;;;4.00;;
23155;SDS011;11746;50.876;4.246;2023-04-25T01:36:39;15.38;;;3.95;;
23155;SDS011;11746;50.876;4.246;2023-04-25T01:39:05;14.65;;;4.30;;
23155;SDS011;11746;50.876;4.246;2023-04-25T01:41:31;18.45;;;4.50;;
23155;SDS011;11746;50.876;4.246;2023-04-25T01:43:59;13.35;;;4.25;;
23155;SDS011;11746;50.876;4.246;2023-04-25T01:46:28;21.40;;;4.45;;
23155;SDS011;11746;50.876;4.246;2023-04-25T01:48:54;13.93;;;3.95;;
23155;SDS011;11746;50.876;4.246;2023-04-25T01:51:22;16.38;;;4.18;;
23155;SDS011;11746;50.876;4.246;2023-04-25T01:53:50;18.42;;;4.25;;
23155;SDS011;11746;50.876;4.246;2023-04-25T01:56:19;16.08;;;4.45;;
23155;SDS011;11746;50.876;4.246;2023-04-25T01:58:46;18.10;;;4.43;;
23155;SDS011;11746;50.876;4.246;2023-04-25T02:01:14;14.10;;;4.43;;
23155;SDS011;11746;50.876;4.246;2023-04-25T02:03:40;16.58;;;4.50;;
23155;SDS011;11746;50.876;4.246;2023-04-25T02:06:08;17.30;;;4.30;;
23155;SDS011;11746;50.876;4.246;2023-04-25T02:08:38;18.10;;;5.15;;
23155;SDS011;11746;50.876;4.246;2023-04-25T02:11:04;15.52;;;4.53;;
23155;SDS011;11746;50.876;4.246;2023-04-25T02:13:29;19.80;;;4.30;;
23155;SDS011;11746;50.876;4.246;2023-04-25T02:15:55;18.83;;;4.60;;
23155;SDS011;11746;50.876;4.246;2023-04-25T02:18:20;14.35;;;3.95;;
23155;SDS011;11746;50.876;4.246;2023-04-25T02:20:46;16.55;;;4.85;;
23155;SDS011;11746;50.876;4.246;2023-04-25T02:23:19;13.20;;;4.20;;
23155;SDS011;11746;50.876;4.246;2023-04-25T02:25:45;19.60;;;4.28;;
23155;SDS011;11746;50.876;4.246;2023-04-25T02:28:13;12.55;;;3.60;;
23155;SDS011;11746;50.876;4.246;2023-04-25T02:30:41;17.35;;;4.35;;
23155;SDS011;11746;50.876;4.246;2023-04-25T02:33:09;20.05;;;5.00;;
23155;SDS011;11746;50.876;4.246;2023-04-25T02:35:35;16.02;;;3.92;;
23155;SDS011;11746;50.876;4.246;2023-04-25T02:38:00;20.17;;;5.13;;
23155;SDS011;11746;50.876;4.246;2023-04-25T02:40:29;14.93;;;4.18;;
23155;SDS011;11746;50.876;4.246;2023-04-25T02:42:55;18.17;;;4.68;;
23155;SDS011;11746;50.876;4.246;2023-04-25T02:45:22;12.45;;;4.30;;
23155;SDS011;11746;50.876;4.246;2023-04-25T02:47:48;18.05;;;4.10;;
23155;SDS011;11746;50.876;4.246;2023-04-25T02:50:13;19.65;;;4.15;;
23155;SDS011;11746;50.876;4.246;2023-04-25T02:52:44;14.40;;;4.53;;
23155;SDS011;11746;50.876;4.246;2023-04-25T02:55:12;16.80;;;4.20;;
23155;SDS011;11746;50.876;4.246;2023-04-25T02:57:38;13.45;;;3.95;;
23155;SDS011;11746;50.876;4.246;2023-04-25T03:00:06;17.20;;;4.30;;
23155;SDS011;11746;50.876;4.246;2023-04-25T03:02:36;15.10;;;3.78;;
23155;SDS011;11746;50.876;4.246;2023-04-25T03:05:02;15.57;;;4.07;;
23155;SDS011;11746;50.876;4.246;2023-04-25T03:07:28;18.05;;;4.97;;
23155;SDS011;11746;50.876;4.246;2023-04-25T03:09:53;14.52;;;4.95;;
23155;SDS011;11746;50.876;4.246;2023-04-25T03:12:24;13.88;;;4.15;;
23155;SDS011;11746;50.876;4.246;2023-04-25T03:14:50;20.90;;;4.15;;
23155;SDS011;11746;50.876;4.246;2023-04-25T03:17:15;17.10;;;4.35;;
23155;SDS011;11746;50.876;4.246;2023-04-25T03:19:43;20.35;;;4.57;;
23155;SDS011;11746;50.876;4.246;2023-04-25T03:22:11;16.90;;;4.32;;
23155;SDS011;11746;50.876;4.246;2023-04-25T03:24:37;18.40;;;3.97;;
23155;SDS011;11746;50.876;4.246;2023-04-25T03:27:02;15.63;;;4.03;;
23155;SDS011;11746;50.876;4.246;2023-04-25T03:29:31;19.23;;;4.30;;
23155;SDS011;11746;50.876;4.246;2023-04-25T03:31:56;15.05;;;3.88;;
23155;SDS011;11746;50.876;4.246;2023-04-25T03:34:24;16.33;;;4.38;;
23155;SDS011;11746;50.876;4.246;2023-04-25T03:36:53;16.45;;;4.22;;
23155;SDS011;11746;50.876;4.246;2023-04-25T03:39:22;13.40;;;3.33;;
23155;SDS011;11746;50.876;4.246;2023-04-25T03:41:55;19.27;;;4.35;;
23155;SDS011;11746;50.876;4.246;2023-04-25T03:44:21;14.32;;;4.03;;
23155;SDS011;11746;50.876;4.246;2023-04-25T03:46:46;16.35;;;4.15;;
23155;SDS011;11746;50.876;4.246;2023-04-25T03:49:19;12.65;;;3.67;;
23155;SDS011;11746;50.876;4.246;2023-04-25T03:51:45;15.73;;;3.92;;
23155;SDS011;11746;50.876;4.246;2023-04-25T03:54:11;14.57;;;3.65;;
23155;SDS011;11746;50.876;4.246;2023-04-25T03:56:36;16.15;;;3.95;;
23155;SDS011;11746;50.876;4.246;2023-04-25T03:59:02;16.15;;;3.97;;
23155;SDS011;11746;50.876;4.246;2023-04-25T04:01:30;14.48;;;3.67;;
23155;SDS011;11746;50.876;4.246;2023-04-25T04:03:55;14.23;;;4.20;;
23155;SDS011;11746;50.876;4.246;2023-04-25T04:06:23;17.23;;;4.72;;
23155;SDS011;11746;50.876;4.246;2023-04-25T04:08:51;13.68;;;3.70;;
23155;SDS011;11746;50.876;4.246;2023-04-25T04:11:17;17.65;;;4.47;;
23155;SDS011;11746;50.876;4.246;2023-04-25T04:13:43;12.25;;;3.90;;
23155;SDS011;11746;50.876;4.246;2023-04-25T04:16:11;10.80;;;3.33;;
23155;SDS011;11746;50.876;4.246;2023-04-25T04:18:41;17.05;;;3.63;;
23155;SDS011;11746;50.876;4.246;2023-04-25T04:21:07;14.77;;;3.30;;
23155;SDS011;11746;50.876;4.246;2023-04-25T04:23:32;13.80;;;3.55;;
23155;SDS011;11746;50.876;4.246;2023-04-25T04:25:58;16.77;;;3.78;;
23155;SDS011;11746;50.876;4.246;2023-04-25T04:28:24;21.92;;;4.75;;
23155;SDS011;11746;50.876;4.246;2023-04-25T04:30:51;14.98;;;3.72;;
23155;SDS011;11746;50.876;4.246;2023-04-25T04:33:17;24.58;;;4.97;;
23155;SDS011;11746;50.876;4.246;2023-04-25T04:35:46;12.48;;;3.15;;
23155;SDS011;11746;50.876;4.246;2023-04-25T04:38:12;17.83;;;4.40;;
23155;SDS011;11746;50.876;4.246;2023-04-25T04:40:40;19.00;;;4.38;;
23155;SDS011;11746;50.876;4.246;2023-04-25T04:43:08;16.75;;;4.15;;
23155;SDS011;11746;50.876;4.246;2023-04-25T04:45:35;15.93;;;4.25;;
23155;SDS011;11746;50.876;4.246;2023-04-25T04:48:03;13.95;;;4.22;;
23155;SDS011;11746;50.876;4.246;2023-04-25T04:50:30;17.23;;;4.78;;
23155;SDS011;11746;50.876;4.246;2023-04-25T04:52:57;17.25;;;4.13;;
23155;SDS011;11746;50.876;4.246;2023-04-25T04:55:23;14.07;;;3.67;;
23155;SDS011;11746;50.876;4.246;2023-04-25T04:57:51;11.98;;;4.28;;
23155;SDS011;11746;50.876;4.246;2023-04-25T05:00:17;16.92;;;3.58;;
23155;SDS011;11746;50.876;4.246;2023-04-25T05:02:43;14.05;;;3.78;;
23155;SDS011;11746;50.876;4.246;2023-04-25T05:05:08;10.35;;;3.35;;
23155;SDS011;11746;50.876;4.246;2023-04-25T05:07:36;14.82;;;3.72;;
23155;SDS011;11746;50.876;4.246;2023-04-25T05:10:02;8.65;;;3.08;;
23155;SDS011;11746;50.876;4.246;2023-04-25T05:12:28;13.25;;;3.40;;
23155;SDS011;11746;50.876;4.246;2023-04-25T05:14:54;11.15;;;3.13;;
23155;SDS011;11746;50.876;4.246;2023-04-25T05:17:19;14.05;;;3.17;;
23155;SDS011;11746;50.876;4.246;2023-04-25T05:19:45;14.20;;;3.33;;
23155;SDS011;11746;50.876;4.246;2023-04-25T05:22:13;11.75;;;3.28;;
23155;SDS011;11746;50.876;4.246;2023-04-25T05:24:39;9.60;;;3.13;;
23155;SDS011;11746;50.876;4.246;2023-04-25T05:27:07;9.00;;;2.60;;
23155;SDS011;11746;50.876;4.246;2023-04-25T05:29:37;11.20;;;2.97;;
23155;SDS011;11746;50.876;4.246;2023-04-25T05:32:03;14.77;;;3.47;;
23155;SDS011;11746;50.876;4.246;2023-04-25T05:34:28;11.32;;;3.28;;
23155;SDS011;11746;50.876;4.246;2023-04-25T05:36:59;9.77;;;3.42;;
23155;SDS011;11746;50.876;4.246;2023-04-25T05:39:27;14.95;;;3.67;;
23155;SDS011;11746;50.876;4.246;2023-04-25T05:41:53;11.43;;;3.47;;
23155;SDS011;11746;50.876;4.246;2023-04-25T05:44:19;8.68;;;3.58;;
23155;SDS011;11746;50.876;4.246;2023-04-25T05:46:47;13.23;;;3.83;;
23155;SDS011;11746;50.876;4.246;2023-04-25T05:49:16;9.25;;;3.58;;
23155;SDS011;11746;50.876;4.246;2023-04-25T05:51:41;12.60;;;3.33;;
23155;SDS011;11746;50.876;4.246;2023-04-25T05:54:09;11.68;;;3.72;;
23155;SDS011;11746;50.876;4.246;2023-04-25T05:56:35;10.27;;;2.92;;
23155;SDS011;11746;50.876;4.246;2023-04-25T05:59:00;8.70;;;2.97;;
23155;SDS011;11746;50.876;4.246;2023-04-25T06:01:26;11.45;;;3.10;;
23155;SDS011;11746;50.876;4.246;2023-04-25T06:03:51;12.27;;;3.45;;
23155;SDS011;11746;50.876;4.246;2023-04-25T06:06:17;11.75;;;4.10;;
23155;SDS011;11746;50.876;4.246;2023-04-25T06:08:43;12.63;;;3.67;;
23155;SDS011;11746;50.876;4.246;2023-04-25T06:11:10;12.02;;;3.35;;
23155;SDS011;11746;50.876;4.246;2023-04-25T06:13:35;14.35;;;4.57;;
23155;SDS011;11746;50.876;4.246;2023-04-25T06:16:03;16.00;;;4.38;;
23155;SDS011;11746;50.876;4.246;2023-04-25T06:18:29;13.43;;;3.72;;
23155;SDS011;11746;50.876;4.246;2023-04-25T06:20:55;12.32;;;4.07;;
23155;SDS011;11746;50.876;4.246;2023-04-25T06:23:21;14.30;;;4.18;;
23155;SDS011;11746;50.876;4.246;2023-04-25T06:25:46;11.82;;;4.65;;
23155;SDS011;11746;50.876;4.246;2023-04-25T06:28:12;57.75;;;36.65;;
23155;SDS011;11746;50.876;4.246;2023-04-25T06:30:40;46.40;;;23.88;;
23155;SDS011;11746;50.876;4.246;2023-04-25T06:33:05;24.38;;;12.32;;
23155;SDS011;11746;50.876;4.246;2023-04-25T06:35:33;11.13;;;3.38;;
23155;SDS011;11746;50.876;4.246;2023-04-25T06:37:59;15.55;;;4.65;;
23155;SDS011;11746;50.876;4.246;2023-04-25T06:40:27;53.95;;;24.95;;
23155;SDS011;11746;50.876;4.246;2023-04-25T06:42:55;59.47;;;27.58;;
23155;SDS011;11746;50.876;4.246;2023-04-25T06:45:23;20.17;;;8.63;;
23155;SDS011;11746;50.876;4.246;2023-04-25T06:47:48;40.28;;;19.48;;
23155;SDS011;11746;50.876;4.246;2023-04-25T06:50:14;26.00;;;11.88;;
23155;SDS011;11746;50.876;4.246;2023-04-25T06:52:44;38.83;;;21.52;;
23155;SDS011;11746;50.876;4.246;2023-04-25T06:55:12;19.92;;;7.85;;
23155;SDS011;11746;50.876;4.246;2023-04-25T06:57:39;26.17;;;8.77;;
23155;SDS011;11746;50.876;4.246;2023-04-25T07:00:05;11.10;;;3.30;;
23155;SDS011;11746;50.876;4.246;2023-04-25T07:02:33;16.63;;;5.28;;
23155;SDS011;11746;50.876;4.246;2023-04-25T07:04:59;15.13;;;5.15;;
23155;SDS011;11746;50.876;4.246;2023-04-25T07:07:25;12.63;;;4.85;;
23155;SDS011;11746;50.876;4.246;2023-04-25T07:09:51;15.60;;;3.60;;
23155;SDS011;11746;50.876;4.246;2023-04-25T07:12:22;12.13;;;2.60;;
23155;SDS011;11746;50.876;4.246;2023-04-25T07:14:52;10.85;;;2.90;;
23155;SDS011;11746;50.876;4.246;2023-04-25T07:17:20;9.93;;;2.10;;
23155;SDS011;11746;50.876;4.246;2023-04-25T07:19:46;9.60;;;2.53;;
23155;SDS011;11746;50.876;4.246;2023-04-25T07:22:14;9.02;;;2.85;;
23155;SDS011;11746;50.876;4.246;2023-04-25T07:24:40;11.63;;;2.92;;
23155;SDS011;11746;50.876;4.246;2023-04-25T07:27:05;10.00;;;2.72;;
23155;SDS011;11746;50.876;4.246;2023-04-25T07:29:31;16.75;;;3.33;;
23155;SDS011;11746;50.876;4.246;2023-04-25T07:31:57;10.57;;;2.53;;
23155;SDS011;11746;50.876;4.246;2023-04-25T07:34:27;11.32;;;2.55;;
23155;SDS011;11746;50.876;4.246;2023-04-25T07:37:02;7.82;;;2.00;;
23155;SDS011;11746;50.876;4.246;2023-04-25T07:39:27;12.88;;;2.60;;
23155;SDS011;11746;50.876;4.246;2023-04-25T07:41:55;10.70;;;2.55;;
23155;SDS011;11746;50.876;4.246;2023-04-25T07:44:25;8.30;;;2.70;;
23155;SDS011;11746;50.876;4.246;2023-04-25T07:46:51;10.82;;;2.53;;
23155;SDS011;11746;50.876;4.246;2023-04-25T07:49:16;14.73;;;2.53;;
23155;SDS011;11746;50.876;4.246;2023-04-25T07:51:42;10.60;;;2.70;;
23155;SDS011;11746;50.876;4.246;2023-04-25T07:54:13;13.13;;;2.63;;
23155;SDS011;11746;50.876;4.246;2023-04-25T07:56:39;7.45;;;2.33;;
23155;SDS011;11746;50.876;4.246;2023-04-25T07:59:09;9.45;;;2.38;;
23155;SDS011;11746;50.876;4.246;2023-04-25T08:01:35;10.90;;;2.65;;
23155;SDS011;11746;50.876;4.246;2023-04-25T08:04:01;10.63;;;2.25;;
23155;SDS011;11746;50.876;4.246;2023-04-25T08:06:27;11.90;;;2.58;;
23155;SDS011;11746;50.876;4.246;2023-04-25T08:08:52;11.60;;;2.63;;
23155;SDS011;11746;50.876;4.246;2023-04-25T08:11:21;7.38;;;2.33;;
23155;SDS011;11746;50.876;4.246;2023-04-25T08:13:48;9.60;;;2.13;;
23155;SDS011;11746;50.876;4.246;2023-04-25T08:16:14;8.02;;;2.00;;
23155;SDS011;11746;50.876;4.246;2023-04-25T08:18:41;8.30;;;2.60;;
23155;SDS011;11746;50.876;4.246;2023-04-25T08:21:09;7.25;;;2.10;;
23155;SDS011;11746;50.876;4.246;2023-04-25T08:23:38;8.20;;;2.60;;
23155;SDS011;11746;50.876;4.246;2023-04-25T08:26:06;8.57;;;2.33;;
23155;SDS011;11746;50.876;4.246;2023-04-25T08:28:32;8.98;;;2.35;;
23155;SDS011;11746;50.876;4.246;2023-04-25T08:30:58;15.80;;;3.17;;
23155;SDS011;11746;50.876;4.246;2023-04-25T08:33:24;11.07;;;2.88;;
23155;SDS011;11746;50.876;4.246;2023-04-25T08:35:50;9.57;;;2.67;;
23155;SDS011;11746;50.876;4.246;2023-04-25T08:38:15;11.32;;;2.28;;
23155;SDS011;11746;50.876;4.246;2023-04-25T08:40:42;9.73;;;1.65;;
23155;SDS011;11746;50.876;4.246;2023-04-25T08:43:12;10.82;;;2.22;;
23155;SDS011;11746;50.876;4.246;2023-04-25T08:45:40;10.50;;;2.47;;
23155;SDS011;11746;50.876;4.246;2023-04-25T08:48:07;7.15;;;2.33;;
23155;SDS011;11746;50.876;4.246;2023-04-25T08:50:46;7.95;;;1.80;;
23155;SDS011;11746;50.876;4.246;2023-04-25T08:53:21;8.18;;;1.73;;
23155;SDS011;11746;50.876;4.246;2023-04-25T08:55:50;6.05;;;1.48;;
23155;SDS011;11746;50.876;4.246;2023-04-25T08:58:21;20.75;;;2.38;;
23155;SDS011;11746;50.876;4.246;2023-04-25T09:00:49;13.88;;;2.40;;
23155;SDS011;11746;50.876;4.246;2023-04-25T09:03:16;10.18;;;1.80;;
23155;SDS011;11746;50.876;4.246;2023-04-25T09:05:44;9.70;;;2.17;;
23155;SDS011;11746;50.876;4.246;2023-04-25T09:08:10;7.70;;;2.28;;
23155;SDS011;11746;50.876;4.246;2023-04-25T09:10:36;9.95;;;1.80;;
23155;SDS011;11746;50.876;4.246;2023-04-25T09:13:09;8.63;;;1.60;;
23155;SDS011;11746;50.876;4.246;2023-04-25T09:15:52;8.70;;;2.05;;
23155;SDS011;11746;50.876;4.246;2023-04-25T09:18:25;7.10;;;1.95;;
23155;SDS011;11746;50.876;4.246;2023-04-25T09:20:58;8.18;;;1.63;;
23155;SDS011;11746;50.876;4.246;2023-04-25T09:23:30;7.60;;;1.73;;
23155;SDS011;11746;50.876;4.246;2023-04-25T09:26:06;9.60;;;1.65;;
23155;SDS011;11746;50.876;4.246;2023-04-25T09:28:32;11.18;;;2.20;;
23155;SDS011;11746;50.876;4.246;2023-04-25T09:31:00;8.00;;;1.63;;
23155;SDS011;11746;50.876;4.246;2023-04-25T09:33:29;9.32;;;2.67;;
23155;SDS011;11746;50.876;4.246;2023-04-25T09:36:05;9.15;;;1.95;;
23155;SDS011;11746;50.876;4.246;2023-04-25T09:38:32;6.10;;;1.50;;
23155;SDS011;11746;50.876;4.246;2023-04-25T09:41:08;11.25;;;2.25;;
23155;SDS011;11746;50.876;4.246;2023-04-25T09:43:39;6.00;;;1.30;;
23155;SDS011;11746;50.876;4.246;2023-04-25T09:46:10;8.52;;;1.90;;
23155;SDS011;11746;50.876;4.246;2023-04-25T09:48:36;8.38;;;1.67;;
23155;SDS011;11746;50.876;4.246;2023-04-25T09:51:14;5.32;;;1.38;;
23155;SDS011;11746;50.876;4.246;2023-04-25T09:53:43;6.75;;;1.80;;
23155;SDS011;11746;50.876;4.246;2023-04-25T09:56:21;9.20;;;1.77;;
23155;SDS011;11746;50.876;4.246;2023-04-25T09:58:51;7.93;;;1.55;;
23155;SDS011;11746;50.876;4.246;2023-04-25T10:01:19;11.50;;;1.60;;
23155;SDS011;11746;50.876;4.246;2023-04-25T10:03:46;19.00;;;1.55;;
23155;SDS011;11746;50.876;4.246;2023-04-25T10:06:19;4.18;;;1.27;;
23155;SDS011;11746;50.876;4.246;2023-04-25T10:08:46;2.25;;;0.93;;
23155;SDS011;11746;50.876;4.246;2023-04-25T10:11:16;4.43;;;1.05;;
23155;SDS011;11746;50.876;4.246;2023-04-25T10:13:44;4.18;;;1.05;;
23155;SDS011;11746;50.876;4.246;2023-04-25T10:16:10;2.47;;;0.85;;
23155;SDS011;11746;50.876;4.246;2023-04-25T10:18:36;5.78;;;1.00;;
23155;SDS011;11746;50.876;4.246;2023-04-25T10:21:03;9.63;;;1.55;;
23155;SDS011;11746;50.876;4.246;2023-04-25T10:23:31;6.90;;;1.10;;
23155;SDS011;11746;50.876;4.246;2023-04-25T10:26:01;5.25;;;1.35;;
23155;SDS011;11746;50.876;4.246;2023-04-25T10:28:29;9.85;;;1.60;;
23155;SDS011;11746;50.876;4.246;2023-04-25T10:31:31;7.05;;;1.25;;
23155;SDS011;11746;50.876;4.246;2023-04-25T10:33:57;8.27;;;1.90;;
23155;SDS011;11746;50.876;4.246;2023-04-25T10:36:24;5.07;;;1.15;;
23155;SDS011;11746;50.876;4.246;2023-04-25T10:38:54;5.13;;;1.52;;
23155;SDS011;11746;50.876;4.246;2023-04-25T10:41:20;10.70;;;1.90;;
23155;SDS011;11746;50.876;4.246;2023-04-25T10:43:48;12.90;;;1.48;;
23155;SDS011;11746;50.876;4.246;2023-04-25T10:48:56;11.18;;;1.90;;
23155;SDS011;11746;50.876;4.246;2023-04-25T10:51:32;9.70;;;2.00;;
23155;SDS011;11746;50.876;4.246;2023-04-25T10:58:51;11.23;;;1.67;;
23155;SDS011;11746;50.876;4.246;2023-04-25T11:01:35;6.05;;;1.30;;
23155;SDS011;11746;50.876;4.246;2023-04-25T11:04:04;6.47;;;1.35;;
23155;SDS011;11746;50.876;4.246;2023-04-25T11:06:34;5.97;;;1.20;;
23155;SDS011;11746;50.876;4.246;2023-04-25T11:09:30;4.40;;;1.30;;
23155;SDS011;11746;50.876;4.246;2023-04-25T11:11:57;4.88;;;1.15;;
23155;SDS011;11746;50.876;4.246;2023-04-25T11:14:24;7.07;;;1.48;;
23155;SDS011;11746;50.876;4.246;2023-04-25T11:16:54;5.10;;;1.20;;
23155;SDS011;11746;50.876;4.246;2023-04-25T11:19:20;4.25;;;1.10;;
23155;SDS011;11746;50.876;4.246;2023-04-25T11:21:46;5.90;;;1.80;;
23155;SDS011;11746;50.876;4.246;2023-04-25T11:24:12;5.53;;;1.40;;
23155;SDS011;11746;50.876;4.246;2023-04-25T11:26:38;5.60;;;1.55;;
23155;SDS011;11746;50.876;4.246;2023-04-25T11:29:08;6.30;;;1.35;;
23155;SDS011;11746;50.876;4.246;2023-04-25T11:31:34;7.97;;;1.45;;
23155;SDS011;11746;50.876;4.246;2023-04-25T11:34:00;6.63;;;1.40;;
23155;SDS011;11746;50.876;4.246;2023-04-25T11:36:28;12.18;;;2.20;;
23155;SDS011;11746;50.876;4.246;2023-04-25T11:38:53;4.05;;;1.55;;
23155;SDS011;11746;50.876;4.246;2023-04-25T11:41:21;7.63;;;3.20;;
23155;SDS011;11746;50.876;4.246;2023-04-25T11:43:50;6.72;;;1.23;;
23155;SDS011;11746;50.876;4.246;2023-04-25T11:46:19;3.95;;;0.80;;
23155;SDS011;11746;50.876;4.246;2023-04-25T11:48:47;5.38;;;1.25;;
23155;SDS011;11746;50.876;4.246;2023-04-25T11:51:15;4.95;;;1.10;;
23155;SDS011;11746;50.876;4.246;2023-04-25T11:53:44;4.45;;;1.02;;
23155;SDS011;11746;50.876;4.246;2023-04-25T11:56:12;5.28;;;1.00;;
23155;SDS011;11746;50.876;4.246;2023-04-25T11:58:53;7.60;;;1.80;;
23155;SDS011;11746;50.876;4.246;2023-04-25T12:01:46;4.18;;;1.15;;
23155;SDS011;11746;50.876;4.246;2023-04-25T12:04:15;3.95;;;1.00;;
23155;SDS011;11746;50.876;4.246;2023-04-25T12:06:43;4.30;;;1.20;;
23155;SDS011;11746;50.876;4.246;2023-04-25T12:09:13;6.05;;;1.25;;
23155;SDS011;11746;50.876;4.246;2023-04-25T12:12:04;5.60;;;1.10;;
23155;SDS011;11746;50.876;4.246;2023-04-25T12:14:34;3.67;;;0.85;;
23155;SDS011;11746;50.876;4.246;2023-04-25T12:17:02;4.75;;;0.90;;
23155;SDS011;11746;50.876;4.246;2023-04-25T12:19:38;4.85;;;1.10;;
23155;SDS011;11746;50.876;4.246;2023-04-25T12:22:21;3.10;;;0.85;;
23155;SDS011;11746;50.876;4.246;2023-04-25T12:24:51;5.88;;;1.38;;
23155;SDS011;11746;50.876;4.246;2023-04-25T12:27:18;5.78;;;0.95;;
23155;SDS011;11746;50.876;4.246;2023-04-25T12:29:50;6.72;;;1.35;;
23155;SDS011;11746;50.876;4.246;2023-04-25T12:32:17;5.05;;;1.70;;
23155;SDS011;11746;50.876;4.246;2023-04-25T12:34:45;3.03;;;1.10;;
23155;SDS011;11746;50.876;4.246;2023-04-25T12:37:14;3.45;;;1.13;;
23155;SDS011;11746;50.876;4.246;2023-04-25T12:39:40;8.52;;;1.60;;
23155;SDS011;11746;50.876;4.246;2023-04-25T12:42:06;4.45;;;1.20;;
23155;SDS011;11746;50.876;4.246;2023-04-25T12:44:36;4.93;;;1.10;;
23155;SDS011;11746;50.876;4.246;2023-04-25T12:47:03;2.15;;;0.93;;
23155;SDS011;11746;50.876;4.246;2023-04-25T12:49:28;3.40;;;1.23;;
23155;SDS011;11746;50.876;4.246;2023-04-25T12:51:54;5.43;;;1.20;;
23155;SDS011;11746;50.876;4.246;2023-04-25T12:54:20;7.97;;;1.17;;
23155;SDS011;11746;50.876;4.246;2023-04-25T12:56:45;5.95;;;1.08;;
23155;SDS011;11746;50.876;4.246;2023-04-25T12:59:12;7.15;;;1.40;;
23155;SDS011;11746;50.876;4.246;2023-04-25T13:01:40;6.93;;;1.20;;
23155;SDS011;11746;50.876;4.246;2023-04-25T13:04:05;8.05;;;0.98;;
23155;SDS011;11746;50.876;4.246;2023-04-25T13:06:33;13.27;;;1.40;;
23155;SDS011;11746;50.876;4.246;2023-04-25T13:09:04;5.70;;;0.77;;
23155;SDS011;11746;50.876;4.246;2023-04-25T13:11:29;7.93;;;1.33;;
23155;SDS011;11746;50.876;4.246;2023-04-25T13:13:57;3.60;;;0.80;;
23155;SDS011;11746;50.876;4.246;2023-04-25T13:16:23;2.53;;;0.90;;
23155;SDS011;11746;50.876;4.246;2023-04-25T13:18:49;3.42;;;1.00;;
23155;SDS011;11746;50.876;4.246;2023-04-25T13:21:14;2.03;;;0.85;;
23155;SDS011;11746;50.876;4.246;2023-04-25T13:23:40;3.28;;;0.95;;
23155;SDS011;11746;50.876;4.246;2023-04-25T13:26:09;4.70;;;0.60;;
23155;SDS011;11746;50.876;4.246;2023-04-25T13:28:35;10.15;;;1.50;;
23155;SDS011;11746;50.876;4.246;2023-04-25T13:31:04;5.78;;;0.98;;
23155;SDS011;11746;50.876;4.246;2023-04-25T13:33:34;5.28;;;1.08;;
23155;SDS011;11746;50.876;4.246;2023-04-25T13:36:00;2.72;;;1.00;;
23155;SDS011;11746;50.876;4.246;2023-04-25T13:38:26;3.38;;;0.98;;
23155;SDS011;11746;50.876;4.246;2023-04-25T13:40:54;5.07;;;1.00;;
23155;SDS011;11746;50.876;4.246;2023-04-25T13:43:22;59.30;;;4.35;;
23155;SDS011;11746;50.876;4.246;2023-04-25T13:45:50;4.57;;;1.05;;
23155;SDS011;11746;50.876;4.246;2023-04-25T13:48:18;4.45;;;1.10;;
23155;SDS011;11746;50.876;4.246;2023-04-25T13:50:44;4.95;;;1.02;;
23155;SDS011;11746;50.876;4.246;2023-04-25T13:53:10;5.10;;;1.20;;
23155;SDS011;11746;50.876;4.246;2023-04-25T13:55:38;4.00;;;1.10;;
23155;SDS011;11746;50.876;4.246;2023-04-25T13:58:08;5.00;;;1.20;;
23155;SDS011;11746;50.876;4.246;2023-04-25T14:00:38;10.25;;;1.77;;
23155;SDS011;11746;50.876;4.246;2023-04-25T14:03:06;4.95;;;1.23;;
23155;SDS011;11746;50.876;4.246;2023-04-25T14:05:36;4.00;;;1.02;;
23155;SDS011;11746;50.876;4.246;2023-04-25T14:08:03;4.70;;;1.30;;
23155;SDS011;11746;50.876;4.246;2023-04-25T14:10:30;5.00;;;1.42;;
23155;SDS011;11746;50.876;4.246;2023-04-25T14:12:56;5.22;;;1.10;;
23155;SDS011;11746;50.876;4.246;2023-04-25T14:15:24;3.20;;;1.02;;
23155;SDS011;11746;50.876;4.246;2023-04-25T14:17:50;6.90;;;1.30;;
23155;SDS011;11746;50.876;4.246;2023-04-25T14:20:16;3.45;;;0.93;;
23155;SDS011;11746;50.876;4.246;2023-04-25T14:22:45;4.13;;;1.10;;
23155;SDS011;11746;50.876;4.246;2023-04-25T14:25:13;2.92;;;1.00;;
23155;SDS011;11746;50.876;4.246;2023-04-25T14:27:38;5.90;;;1.10;;
23155;SDS011;11746;50.876;4.246;2023-04-25T14:30:06;5.88;;;1.08;;
23155;SDS011;11746;50.876;4.246;2023-04-25T14:32:34;7.00;;;1.02;;
23155;SDS011;11746;50.876;4.246;2023-04-25T14:35:02;6.68;;;0.88;;
23155;SDS011;11746;50.876;4.246;2023-04-25T14:37:28;6.35;;;1.15;;
23155;SDS011;11746;50.876;4.246;2023-04-25T14:39:53;6.80;;;1.55;;
23155;SDS011;11746;50.876;4.246;2023-04-25T14:42:19;7.18;;;1.05;;
23155;SDS011;11746;50.876;4.246;2023-04-25T14:44:47;3.58;;;0.98;;
23155;SDS011;11746;50.876;4.246;2023-04-25T14:47:15;4.47;;;1.38;;
23155;SDS011;11746;50.876;4.246;2023-04-25T14:49:41;8.23;;;1.05;;
23155;SDS011;11746;50.876;4.246;2023-04-25T14:52:06;6.70;;;1.10;;